Time;durP1;ratioP1;P1;durP2;ratioP2;P2;SDS_P1;SDS_P2;PMS_P1;PMS_P2;Temp;Humidity;BMP_temperature;BMP_pressure;BME280_temperature;BME280_humidity;BME280_pressure;Samples;Min_cycle;Max_cycle;Signal;HPM_P1;HPM_P2
2022/10/28 04:01:24;;;;;;;4.63;2.63;;;13.10;99.90;;;;;;6063050;23;20956;-70
2022/10/28 04:03:52;;;;;;;4.30;2.63;;;13.10;99.90;;;;;;6093350;23;20486;-71
2022/10/28 04:06:19;;;;;;;2.40;2.30;;;13.10;99.90;;;;;;6093319;23;20430;-71
2022/10/28 04:08:46;;;;;;;2.77;2.57;;;13.20;99.90;;;;;;6093760;23;20511;-71
2022/10/28 04:11:12;;;;;;;2.50;2.27;;;13.20;99.90;;;;;;6093880;23;20961;-71
2022/10/28 04:13:39;;;;;;;3.57;3.30;;;13.20;99.90;;;;;;6092541;23;20433;-71
2022/10/28 04:16:07;;;;;;;3.30;2.20;;;13.30;99.90;;;;;;6093863;23;20509;-70
2022/10/28 04:18:35;;;;;;;8.13;2.80;;;13.30;99.90;;;;;;6091565;23;20450;-70
2022/10/28 04:21:02;;;;;;;2.47;2.27;;;13.20;99.90;;;;;;6092664;23;20541;-70
2022/10/28 04:23:28;;;;;;;3.40;3.20;;;13.20;99.90;;;;;;6091419;23;20452;-70
2022/10/28 04:25:55;;;;;;;1.60;1.60;;;13.20;99.90;;;;;;6102160;23;20426;-70
2022/10/28 04:28:23;;;;;;;3.67;3.50;;;13.10;99.90;;;;;;6092468;23;20423;-69
2022/10/28 04:30:50;;;;;;;2.30;2.10;;;13.10;99.90;;;;;;6092902;23;20448;-71
2022/10/28 04:33:16;;;;;;;2.47;2.37;;;13.10;99.90;;;;;;6089679;23;20434;-70
2022/10/28 04:35:45;;;;;;;10.73;3.53;;;13.10;99.90;;;;;;6092334;23;20755;-70
2022/10/28 04:38:12;;;;;;;3.33;3.10;;;13.10;99.90;;;;;;6092909;23;20451;-70
2022/10/28 04:40:39;;;;;;;6.00;2.70;;;13.10;99.90;;;;;;6092249;23;20450;-70
2022/10/28 04:43:06;;;;;;;2.57;2.47;;;13.10;99.90;;;;;;6091114;23;20427;-70
2022/10/28 04:45:33;;;;;;;7.10;2.97;;;13.20;99.90;;;;;;6092484;23;20708;-70
2022/10/28 04:48:00;;;;;;;2.87;2.60;;;13.20;99.90;;;;;;6091444;23;20431;-70
2022/10/28 04:50:28;;;;;;;2.47;2.37;;;13.20;99.90;;;;;;6092422;23;20427;-70
2022/10/28 04:52:56;;;;;;;3.27;2.63;;;13.20;99.90;;;;;;6091806;23;20734;-70
2022/10/28 04:55:22;;;;;;;2.10;2.00;;;13.20;99.90;;;;;;6092050;23;20434;-70
2022/10/28 04:57:55;;;;;;;3.20;3.00;;;13.30;99.90;;;;;;6091503;23;20442;-71
2022/10/28 05:00:22;;;;;;;2.80;2.60;;;13.30;99.90;;;;;;6092603;23;20425;-71
2022/10/28 05:02:49;;;;;;;4.00;2.17;;;13.30;99.90;;;;;;6090192;23;20412;-71
2022/10/28 05:05:16;;;;;;;4.80;3.33;;;13.40;99.90;;;;;;6092408;23;20430;-71
2022/10/28 05:07:43;;;;;;;11.90;3.23;;;13.40;99.90;;;;;;6093101;23;20430;-70
2022/10/28 05:10:14;;;;;;;3.53;2.53;;;13.50;99.90;;;;;;6092797;23;20423;-71
2022/10/28 05:12:41;;;;;;;3.60;3.53;;;13.40;99.90;;;;;;6091034;23;20414;-71
2022/10/28 05:15:09;;;;;;;2.33;2.23;;;13.50;99.90;;;;;;6092440;23;20936;-70
2022/10/28 05:17:37;;;;;;;2.83;2.60;;;13.50;99.90;;;;;;6092467;23;20427;-70
2022/10/28 05:20:05;;;;;;;3.33;3.23;;;13.50;99.90;;;;;;6091817;23;20454;-72
2022/10/28 05:22:32;;;;;;;2.30;2.10;;;13.50;99.90;;;;;;6091505;23;20453;-73
2022/10/28 05:24:59;;;;;;;4.73;3.53;;;13.40;99.90;;;;;;6092039;23;20424;-71
2022/10/28 05:27:27;;;;;;;5.47;3.07;;;13.40;99.90;;;;;;6091682;23;20427;-71
2022/10/28 05:29:53;;;;;;;4.10;2.73;;;13.40;99.90;;;;;;6092072;23;20752;-72
2022/10/28 05:32:20;;;;;;;3.20;3.00;;;13.40;99.90;;;;;;6091860;23;20552;-69
2022/10/28 05:34:47;;;;;;;2.87;2.77;;;13.40;99.90;;;;;;6091480;23;20441;-71
2022/10/28 05:37:14;;;;;;;2.87;2.67;;;13.40;99.90;;;;;;6092550;23;20780;-71
2022/10/28 05:39:40;;;;;;;1.73;1.63;;;13.50;99.90;;;;;;6092289;23;20484;-71
2022/10/28 05:42:07;;;;;;;2.73;2.63;;;13.50;99.90;;;;;;6091227;23;20445;-70
2022/10/28 05:44:35;;;;;;;2.47;2.27;;;13.40;99.90;;;;;;6091700;23;20446;-70
2022/10/28 05:47:02;;;;;;;3.80;2.97;;;13.40;99.90;;;;;;6093105;23;20434;-70
2022/10/28 05:49:28;;;;;;;4.63;4.23;;;13.40;99.90;;;;;;6094811;23;20906;-71
2022/10/28 05:51:55;;;;;;;3.17;2.70;;;13.40;99.90;;;;;;6096436;23;20447;-69
2022/10/28 05:54:22;;;;;;;2.50;2.40;;;13.40;99.90;;;;;;6098194;23;20641;-70
2022/10/28 05:56:49;;;;;;;3.37;3.07;;;13.30;99.90;;;;;;6094990;23;20423;-72
2022/10/28 05:59:15;;;;;;;2.93;2.73;;;13.30;99.90;;;;;;6093097;23;20462;-70
2022/10/28 06:01:43;;;;;;;5.73;2.63;;;13.30;99.90;;;;;;6090926;23;20462;-70
2022/10/28 06:04:10;;;;;;;2.97;2.77;;;13.30;99.90;;;;;;6092115;23;20431;-71
2022/10/28 06:06:37;;;;;;;2.30;2.20;;;13.30;99.90;;;;;;6091317;23;21009;-69
2022/10/28 06:09:04;;;;;;;2.30;2.20;;;13.30;99.90;;;;;;6092685;23;20517;-70
2022/10/28 06:11:30;;;;;;;3.10;2.77;;;13.40;99.90;;;;;;6091664;23;20454;-71
2022/10/28 06:13:57;;;;;;;2.77;2.60;;;13.30;99.90;;;;;;6091874;23;20427;-72
2022/10/28 06:16:24;;;;;;;2.47;2.37;;;13.30;99.90;;;;;;6091004;23;20434;-70
2022/10/28 06:18:52;;;;;;;2.83;2.67;;;13.30;99.90;;;;;;6092085;23;20451;-70
2022/10/28 06:21:19;;;;;;;6.53;2.70;;;13.30;99.90;;;;;;6091522;23;20447;-70
2022/10/28 06:23:47;;;;;;;2.70;2.60;;;13.40;99.90;;;;;;6091807;23;20431;-71
2022/10/28 06:26:14;;;;;;;4.67;2.77;;;13.30;99.90;;;;;;6092059;23;20819;-70
2022/10/28 06:28:40;;;;;;;6.83;3.43;;;13.30;99.90;;;;;;6091733;23;20429;-70
2022/10/28 06:31:08;;;;;;;2.37;2.27;;;13.30;99.90;;;;;;6091267;23;20813;-71
2022/10/28 06:33:35;;;;;;;4.93;3.60;;;13.20;99.90;;;;;;6091937;23;20431;-71
2022/10/28 06:36:04;;;;;;;2.17;2.10;;;13.20;99.90;;;;;;6092040;23;20541;-71
2022/10/28 06:38:31;;;;;;;2.60;2.50;;;13.20;99.90;;;;;;6093115;23;20427;-71
2022/10/28 06:40:59;;;;;;;3.10;2.73;;;13.20;99.90;;;;;;6093753;23;20446;-69
2022/10/28 06:43:25;;;;;;;2.83;2.60;;;13.20;99.90;;;;;;6092284;23;20699;-70
2022/10/28 06:45:55;;;;;;;4.37;2.83;;;13.20;99.90;;;;;;6094086;23;20754;-69
2022/10/28 06:48:23;;;;;;;3.93;3.73;;;13.20;99.90;;;;;;6093944;23;20431;-70
2022/10/28 06:50:49;;;;;;;5.20;4.10;;;13.10;99.90;;;;;;6092933;23;20495;-70
2022/10/28 06:53:17;;;;;;;2.70;2.60;;;13.10;99.90;;;;;;6092652;23;20427;-71
2022/10/28 06:55:47;;;;;;;7.03;3.27;;;13.10;99.90;;;;;;6091980;23;20433;-71
2022/10/28 06:58:14;;;;;;;7.10;3.03;;;13.20;99.90;;;;;;6090937;23;20517;-71
2022/10/28 07:00:40;;;;;;;2.97;2.77;;;13.20;99.90;;;;;;6092787;23;20462;-70
2022/10/28 07:03:09;;;;;;;3.63;3.30;;;13.20;99.90;;;;;;6091098;23;20434;-69
2022/10/28 07:05:36;;;;;;;3.03;2.83;;;13.30;99.90;;;;;;6091970;23;20427;-71
2022/10/28 07:08:02;;;;;;;3.13;2.97;;;13.30;99.90;;;;;;6092885;23;20720;-71
2022/10/28 07:10:30;;;;;;;2.97;2.50;;;13.30;99.90;;;;;;6092522;23;20435;-70
2022/10/28 07:12:57;;;;;;;3.83;3.70;;;13.40;99.90;;;;;;6092368;23;20434;-69
2022/10/28 07:15:24;;;;;;;3.33;3.23;;;13.40;99.90;;;;;;6093761;23;20426;-70
2022/10/28 07:17:54;;;;;;;3.47;2.50;;;13.50;99.90;;;;;;6094146;23;20437;-70
2022/10/28 07:20:21;;;;;;;2.37;2.27;;;13.50;99.90;;;;;;6093842;23;20462;-71
2022/10/28 07:22:48;;;;;;;8.37;4.20;;;13.50;99.90;;;;;;6091845;23;20427;-70
2022/10/28 07:25:15;;;;;;;5.43;3.30;;;13.50;99.90;;;;;;6094093;23;20427;-70
2022/10/28 07:27:43;;;;;;;2.53;2.43;;;13.60;99.90;;;;;;6092185;23;20431;-69
2022/10/28 07:30:11;;;;;;;3.87;3.57;;;13.70;99.90;;;;;;6093415;23;20436;-70
2022/10/28 07:32:38;;;;;;;2.80;2.53;;;13.80;99.90;;;;;;6092817;23;20437;-70
2022/10/28 07:35:05;;;;;;;3.97;3.60;;;13.80;99.90;;;;;;6093589;23;20436;-70
2022/10/28 07:37:32;;;;;;;3.70;3.50;;;13.90;99.90;;;;;;6091776;23;20432;-70
2022/10/28 07:39:59;;;;;;;2.77;2.57;;;13.90;99.90;;;;;;6093417;23;20448;-72
2022/10/28 07:42:26;;;;;;;2.63;2.53;;;13.90;99.90;;;;;;6090671;23;20452;-70
2022/10/28 07:44:54;;;;;;;2.67;2.57;;;13.90;99.90;;;;;;6091646;23;20439;-71
2022/10/28 07:47:21;;;;;;;6.53;3.90;;;14.10;99.90;;;;;;6093029;23;20428;-70
2022/10/28 07:49:47;;;;;;;3.03;2.83;;;14.20;99.90;;;;;;6093437;23;20433;-71
2022/10/28 07:52:14;;;;;;;3.47;3.27;;;14.40;99.90;;;;;;6093427;23;20780;-71
2022/10/28 07:54:41;;;;;;;14.60;3.63;;;14.50;99.90;;;;;;6093163;23;20432;-70
2022/10/28 07:57:08;;;;;;;3.23;3.00;;;14.60;99.90;;;;;;6091317;23;20762;-73
2022/10/28 07:59:34;;;;;;;3.90;3.70;;;14.70;99.90;;;;;;6092814;23;20459;-70
2022/10/28 08:02:03;;;;;;;4.37;2.70;;;14.80;99.90;;;;;;6092870;23;20461;-71
2022/10/28 08:04:31;;;;;;;3.43;3.23;;;14.80;99.90;;;;;;6093672;23;20435;-70
2022/10/28 08:06:57;;;;;;;3.47;3.27;;;14.80;99.90;;;;;;6092671;23;20425;-69
2022/10/28 08:09:24;;;;;;;7.43;2.80;;;14.80;99.90;;;;;;6093242;23;20424;-69
2022/10/28 08:11:55;;;;;;;3.50;3.30;;;14.80;99.90;;;;;;6090828;23;21017;-69
2022/10/28 08:14:22;;;;;;;3.83;3.40;;;14.80;99.90;;;;;;6092893;23;20436;-70
2022/10/28 08:16:49;;;;;;;7.20;2.33;;;14.90;99.90;;;;;;6092783;23;20436;-69
2022/10/28 08:19:17;;;;;;;4.53;2.50;;;14.90;99.90;;;;;;6093709;23;20436;-70
2022/10/28 08:21:43;;;;;;;3.10;2.90;;;14.90;99.90;;;;;;6092530;23;20459;-70
2022/10/28 08:24:10;;;;;;;4.10;3.80;;;14.90;99.90;;;;;;6092276;23;20432;-71
2022/10/28 08:26:36;;;;;;;3.07;2.97;;;14.90;99.90;;;;;;6091207;23;20445;-71
2022/10/28 08:29:03;;;;;;;3.33;2.47;;;15.00;99.90;;;;;;6090673;23;20438;-70
2022/10/28 08:31:32;;;;;;;2.33;2.13;;;15.00;99.90;;;;;;6091231;23;21078;-70
2022/10/28 08:33:58;;;;;;;3.30;3.00;;;15.10;99.90;;;;;;6091154;23;20437;-71
2022/10/28 08:36:27;;;;;;;3.67;3.47;;;15.10;99.90;;;;;;6091497;23;20428;-71
2022/10/28 08:38:54;;;;;;;1.83;1.77;;;15.20;99.90;;;;;;6092969;23;20428;-70
2022/10/28 08:41:29;;;;;;;3.60;3.30;;;15.30;99.90;;;;;;6091863;23;20471;-72
2022/10/28 08:44:14;;;;;;;2.37;1.80;;;15.40;99.90;;;;;;6091233;23;20798;-70
2022/10/28 08:46:56;;;;;;;3.40;3.10;;;15.50;99.90;;;;;;6092639;23;20409;-71
2022/10/28 08:49:24;;;;;;;2.50;1.73;;;15.60;99.90;;;;;;6092900;23;20416;-71
2022/10/28 08:51:56;;;;;;;2.00;1.93;;;15.60;99.90;;;;;;6091145;23;20474;-71
2022/10/28 08:54:27;;;;;;;2.40;2.30;;;15.80;99.90;;;;;;6091444;23;20414;-70
2022/10/28 08:56:55;;;;;;;1.83;1.73;;;15.90;99.90;;;;;;6091473;23;20437;-69
2022/10/28 08:59:25;;;;;;;6.60;2.43;;;15.90;99.90;;;;;;6090157;23;20474;-72
2022/10/28 09:01:56;;;;;;;1.80;1.80;;;16.10;99.90;;;;;;6088298;23;20462;-70
2022/10/28 09:04:31;;;;;;;5.80;2.10;;;16.20;99.90;;;;;;6088822;23;20799;-70
2022/10/28 09:07:01;;;;;;;2.40;2.30;;;16.20;99.90;;;;;;6090609;23;20428;-70
2022/10/28 09:09:27;;;;;;;2.03;2.03;;;16.30;99.90;;;;;;6087397;23;20428;-70
2022/10/28 09:12:10;;;;;;;2.97;2.87;;;16.40;99.90;;;;;;6088755;23;20568;-69
2022/10/28 09:14:52;;;;;;;12.00;2.20;;;16.50;99.90;;;;;;6089862;23;20418;-70
2022/10/28 09:17:21;;;;;;;2.10;2.00;;;16.70;99.90;;;;;;6091729;23;20854;-71
2022/10/28 09:19:49;;;;;;;1.97;1.93;;;16.80;99.90;;;;;;6092917;23;20457;-72
2022/10/28 09:22:24;;;;;;;2.10;2.00;;;16.90;99.90;;;;;;6091527;23;20455;-69
2022/10/28 09:24:54;;;;;;;1.30;1.30;;;17.00;99.90;;;;;;6091683;23;20411;-70
2022/10/28 09:27:48;;;;;;;1.43;1.43;;;17.10;99.90;;;;;;6091681;23;20434;-70
2022/10/28 09:30:27;;;;;;;1.40;1.30;;;17.20;99.90;;;;;;6093581;23;20706;-70
2022/10/28 09:33:07;;;;;;;3.03;1.60;;;17.40;99.90;;;;;;6091187;23;20787;-71
2022/10/28 09:35:39;;;;;;;4.90;2.10;;;17.50;99.90;;;;;;6092552;23;20486;-71
2022/10/28 09:38:16;;;;;;;1.57;1.53;;;17.60;99.90;;;;;;6091952;23;20418;-71
2022/10/28 09:40:50;;;;;;;1.07;1.07;;;17.70;99.90;;;;;;6091366;23;20456;-70
2022/10/28 09:43:25;;;;;;;1.90;1.83;;;17.80;99.90;;;;;;6090655;23;20414;-70
2022/10/28 09:45:55;;;;;;;1.30;1.30;;;17.90;99.90;;;;;;6091764;23;20708;-70
2022/10/28 09:48:25;;;;;;;10.57;1.70;;;18.00;99.90;;;;;;6092842;23;20407;-69
2022/10/28 09:50:54;;;;;;;2.00;1.70;;;18.10;99.90;;;;;;6092962;23;20442;-73
2022/10/28 09:53:31;;;;;;;1.50;1.50;;;18.20;99.90;;;;;;6090193;23;20439;-71
2022/10/28 09:55:57;;;;;;;3.13;1.47;;;18.30;99.90;;;;;;6087888;23;20941;-73
2022/10/28 09:58:24;;;;;;;1.40;1.40;;;18.30;99.90;;;;;;6089860;23;20431;-70
2022/10/28 10:00:51;;;;;;;1.20;1.20;;;18.40;99.90;;;;;;6091940;23;20462;-70
2022/10/28 10:03:18;;;;;;;2.00;1.33;;;18.50;99.90;;;;;;6088241;23;20431;-70
2022/10/28 10:05:48;;;;;;;1.10;1.10;;;18.60;99.90;;;;;;6092318;23;20918;-71
2022/10/28 10:08:18;;;;;;;7.80;1.40;;;18.60;99.90;;;;;;6092752;23;20432;-70
2022/10/28 10:10:49;;;;;;;1.60;1.50;;;18.60;99.90;;;;;;6092343;23;20463;-69
2022/10/28 10:13:21;;;;;;;1.27;1.27;;;18.70;99.90;;;;;;6092339;23;20412;-68
2022/10/28 10:15:52;;;;;;;1.60;1.60;;;18.70;99.90;;;;;;6103418;23;20434;-70
2022/10/28 10:18:23;;;;;;;1.43;1.20;;;18.80;99.90;;;;;;6093489;23;20416;-71
2022/10/28 10:20:52;;;;;;;1.80;1.20;;;18.90;99.90;;;;;;6093951;23;20463;-69
2022/10/28 10:23:23;;;;;;;2.37;1.80;;;19.00;99.90;;;;;;6092657;23;20431;-69
2022/10/28 10:25:58;;;;;;;1.17;1.07;;;19.00;99.90;;;;;;6093095;23;20432;-71
2022/10/28 10:28:26;;;;;;;1.80;1.70;;;19.10;99.90;;;;;;6093653;23;20417;-71
2022/10/28 10:30:54;;;;;;;1.47;1.47;;;19.10;99.90;;;;;;6093837;23;20529;-67
2022/10/28 10:33:24;;;;;;;2.53;2.33;;;19.30;99.90;;;;;;6093809;23;20451;-68
2022/10/28 10:35:57;;;;;;;4.50;1.97;;;19.30;99.90;;;;;;6093696;23;20483;-71
2022/10/28 10:38:24;;;;;;;5.60;2.33;;;19.30;99.90;;;;;;6094208;23;20431;-69
2022/10/28 10:40:52;;;;;;;4.93;1.77;;;19.40;99.90;;;;;;6093713;23;20752;-68
2022/10/28 10:43:30;;;;;;;3.83;1.50;;;19.50;99.90;;;;;;6091661;23;20440;-68
2022/10/28 10:46:02;;;;;;;4.00;1.13;;;19.60;99.90;;;;;;6093152;23;20409;-69
2022/10/28 10:48:31;;;;;;;1.23;1.23;;;19.60;99.90;;;;;;6093922;23;20448;-68
2022/10/28 10:50:58;;;;;;;1.60;1.50;;;19.70;99.90;;;;;;6093158;23;20472;-68
2022/10/28 10:53:27;;;;;;;4.43;1.90;;;19.80;99.90;;;;;;6092714;23;20920;-68
2022/10/28 10:55:56;;;;;;;2.57;1.10;;;19.90;99.90;;;;;;6093350;23;20757;-68
2022/10/28 10:58:27;;;;;;;3.13;1.57;;;19.90;99.90;;;;;;6092841;23;20434;-68
2022/10/28 11:00:56;;;;;;;1.00;1.00;;;20.00;99.90;;;;;;6093237;23;20467;-69
2022/10/28 11:03:27;;;;;;;4.93;1.40;;;20.00;99.90;;;;;;6091359;23;20433;-68
2022/10/28 11:05:56;;;;;;;1.17;1.17;;;20.00;99.90;;;;;;6093470;23;20415;-69
2022/10/28 11:08:33;;;;;;;1.40;1.10;;;20.10;99.90;;;;;;6093026;23;20429;-69
2022/10/28 11:11:12;;;;;;;1.73;1.63;;;20.10;99.90;;;;;;6092920;23;20444;-67
2022/10/28 11:13:41;;;;;;;1.57;1.30;;;20.10;99.90;;;;;;6090944;23;20417;-70
2022/10/28 11:16:18;;;;;;;1.20;1.20;;;20.20;99.90;;;;;;6092463;23;20432;-68
2022/10/28 11:18:47;;;;;;;2.63;1.00;;;20.20;99.90;;;;;;6093136;23;20451;-69
2022/10/28 11:21:41;;;;;;;2.57;1.50;;;20.30;99.90;;;;;;6092933;23;20460;-68
2022/10/28 11:24:35;;;;;;;1.17;1.17;;;20.30;99.90;;;;;;6091881;23;20410;-69
2022/10/28 11:27:15;;;;;;;1.00;0.97;;;20.30;99.90;;;;;;6092192;23;20421;-70
2022/10/28 11:29:45;;;;;;;3.13;2.00;;;20.40;99.90;;;;;;6093522;23;20683;-69
2022/10/28 11:32:29;;;;;;;1.13;1.13;;;20.50;99.90;;;;;;6092817;23;20509;-69
2022/10/28 11:35:08;;;;;;;1.47;1.37;;;20.60;99.90;;;;;;6092813;23;20409;-69
2022/10/28 11:37:47;;;;;;;2.10;1.73;;;20.70;99.90;;;;;;6092946;23;21186;-69
2022/10/28 11:40:26;;;;;;;3.13;1.50;;;20.70;99.90;;;;;;6092085;23;20449;-68
2022/10/28 11:43:07;;;;;;;2.43;1.43;;;20.70;99.90;;;;;;6091664;23;20426;-69
2022/10/28 11:45:42;;;;;;;1.20;1.20;;;20.80;99.90;;;;;;6092874;23;20432;-68
2022/10/28 11:48:22;;;;;;;1.33;1.23;;;20.90;99.90;;;;;;6092917;23;20410;-69
2022/10/28 11:51:02;;;;;;;1.47;1.30;;;20.90;99.90;;;;;;6092206;23;20442;-67
2022/10/28 11:53:46;;;;;;;1.40;1.40;;;20.90;99.90;;;;;;6062588;23;20411;-69
2022/10/28 11:56:23;;;;;;;2.77;1.30;;;20.90;99.90;;;;;;6063192;23;20415;-70
2022/10/28 11:58:58;;;;;;;1.87;1.10;;;20.90;99.90;;;;;;6063756;23;20434;-72
2022/10/28 12:01:48;;;;;;;1.90;1.50;;;20.90;99.90;;;;;;6063918;23;20466;-70
2022/10/28 12:04:28;;;;;;;3.90;1.07;;;20.90;99.90;;;;;;6063249;23;20473;-71
2022/10/28 12:07:19;;;;;;;1.87;1.13;;;20.80;99.90;;;;;;6064325;23;20449;-70
2022/10/28 12:10:01;;;;;;;2.57;1.47;;;20.80;99.90;;;;;;6064336;23;20434;-69
2022/10/28 12:12:34;;;;;;;1.17;1.10;;;20.70;99.90;;;;;;6063289;23;20450;-71
2022/10/28 12:15:10;;;;;;;1.63;1.53;;;20.80;99.90;;;;;;6063703;23;20411;-71
2022/10/28 12:17:44;;;;;;;2.20;1.50;;;20.80;99.90;;;;;;6062899;23;20495;-71
2022/10/28 12:20:19;;;;;;;1.80;1.10;;;20.90;99.90;;;;;;6061966;23;20866;-71
2022/10/28 12:22:50;;;;;;;1.70;1.20;;;20.90;99.90;;;;;;6062490;23;20521;-71
2022/10/28 12:25:22;;;;;;;1.60;1.20;;;21.00;99.90;;;;;;6063171;23;20483;-72
2022/10/28 12:27:51;;;;;;;1.60;1.50;;;21.00;99.90;;;;;;6064670;23;20447;-71
2022/10/28 12:30:21;;;;;;;1.60;1.50;;;21.10;99.90;;;;;;6064373;23;20439;-70
2022/10/28 12:32:54;;;;;;;1.23;1.23;;;21.20;99.90;;;;;;6063068;23;20459;-71
2022/10/28 12:35:24;;;;;;;1.20;1.20;;;21.30;99.90;;;;;;6062737;23;20412;-70
2022/10/28 12:37:57;;;;;;;5.73;1.43;;;21.40;99.90;;;;;;6064604;23;20749;-70
2022/10/28 12:40:28;;;;;;;3.23;1.60;;;21.40;99.90;;;;;;6063608;23;20416;-70
2022/10/28 12:43:00;;;;;;;11.33;2.23;;;21.40;99.90;;;;;;6063644;23;20448;-71
2022/10/28 12:45:30;;;;;;;1.83;1.73;;;21.40;99.90;;;;;;6063079;23;20412;-71
2022/10/28 12:48:04;;;;;;;1.27;1.27;;;21.40;99.90;;;;;;6063166;23;20471;-70
2022/10/28 12:50:37;;;;;;;1.00;1.00;;;21.40;99.90;;;;;;6063403;23;20411;-69
2022/10/28 12:53:24;;;;;;;2.20;1.97;;;21.30;99.90;;;;;;6062276;23;20478;-72
2022/10/28 12:55:55;;;;;;;1.10;1.00;;;21.30;99.90;;;;;;6062891;23;20412;-70
2022/10/28 12:58:29;;;;;;;0.70;0.70;;;21.20;99.90;;;;;;6063331;23;20442;-71
2022/10/28 13:00:59;;;;;;;0.70;0.70;;;21.20;99.90;;;;;;6063885;23;20443;-70
2022/10/28 13:03:27;;;;;;;1.40;1.30;;;21.20;99.90;;;;;;6062279;23;20438;-70
2022/10/28 13:06:17;;;;;;;5.83;1.70;;;21.20;99.90;;;;;;6062912;23;20535;-73
2022/10/28 13:09:20;;;;;;;9.10;3.80;;;21.20;99.90;;;;;;6058829;23;20435;-71
2022/10/28 13:12:11;;;;;;;3.77;1.77;;;21.30;99.90;;;;;;6042704;23;20791;-71
2022/10/28 13:15:04;;;;;;;1.03;1.00;;;21.30;99.90;;;;;;6062987;23;20416;-70
2022/10/28 13:17:43;;;;;;;1.60;1.50;;;21.30;99.90;;;;;;6064349;23;20734;-71
2022/10/28 13:20:22;;;;;;;5.70;1.73;;;21.30;99.90;;;;;;6063877;23;20861;-70
2022/10/28 13:23:03;;;;;;;1.80;1.70;;;21.40;99.90;;;;;;6063863;23;20554;-71
2022/10/28 13:25:55;;;;;;;1.80;1.70;;;21.40;99.90;;;;;;6063551;23;20416;-70
2022/10/28 13:28:23;;;;;;;2.03;2.03;;;21.40;99.90;;;;;;6062898;23;20411;-70
2022/10/28 13:30:55;;;;;;;1.20;1.03;;;21.40;99.90;;;;;;6063878;23;20430;-70
2022/10/28 13:33:24;;;;;;;2.77;1.30;;;21.40;99.90;;;;;;6063429;23;20427;-69
2022/10/28 13:35:54;;;;;;;4.53;1.50;;;21.40;99.90;;;;;;6063560;23;20427;-71
2022/10/28 13:38:24;;;;;;;2.03;1.80;;;21.30;99.90;;;;;;6064152;23;20430;-70
2022/10/28 13:41:25;;;;;;;2.20;1.40;;;21.30;99.90;;;;;;6063417;23;20458;-69
2022/10/28 13:44:25;;;;;;;1.27;1.27;;;21.30;99.90;;;;;;6063202;23;20418;-70
2022/10/28 13:47:25;;;;;;;1.77;1.77;;;21.30;99.90;;;;;;6063315;23;20416;-71
2022/10/28 13:50:26;;;;;;;1.30;1.30;;;21.30;99.90;;;;;;6066032;23;20431;-70
2022/10/28 13:53:41;;;;;;;1.27;1.27;;;21.20;99.90;;;;;;6064663;23;20459;-70
2022/10/28 13:56:23;;;;;;;5.20;1.73;;;21.10;99.90;;;;;;6065072;23;20427;-70
2022/10/28 13:58:52;;;;;;;1.33;1.30;;;21.10;99.90;;;;;;6065296;23;20407;-72
2022/10/28 14:01:38;;;;;;;3.03;1.80;;;21.00;99.90;;;;;;6065977;23;20454;-70
2022/10/28 14:04:19;;;;;;;2.40;2.30;;;21.00;99.90;;;;;;6064563;23;20419;-71
2022/10/28 14:06:46;;;;;;;3.90;1.17;;;20.90;99.90;;;;;;6074628;23;20422;-71
2022/10/28 14:09:21;;;;;;;1.43;1.33;;;20.90;99.90;;;;;;6064575;23;20414;-70
2022/10/28 14:12:03;;;;;;;0.90;0.90;;;20.90;99.90;;;;;;6065743;23;20754;-71
2022/10/28 14:14:31;;;;;;;1.97;1.80;;;20.80;99.90;;;;;;6065298;23;20411;-70
2022/10/28 14:16:58;;;;;;;3.10;1.60;;;20.80;99.90;;;;;;6073544;23;20419;-69
2022/10/28 14:19:25;;;;;;;2.37;1.10;;;20.70;99.90;;;;;;6065242;23;20422;-70
2022/10/28 14:21:56;;;;;;;2.07;1.73;;;20.70;99.90;;;;;;6065681;23;20454;-72
2022/10/28 14:24:34;;;;;;;1.90;1.80;;;20.70;99.90;;;;;;6065814;23;20433;-73
2022/10/28 14:27:44;;;;;;;2.20;2.10;;;20.60;99.90;;;;;;6064036;23;20429;-70
2022/10/28 14:30:22;;;;;;;2.57;2.10;;;20.60;99.90;;;;;;6064322;23;20413;-71
2022/10/28 14:33:25;;;;;;;2.80;1.80;;;20.60;99.90;;;;;;6064228;23;20597;-71
2022/10/28 14:36:12;;;;;;;1.87;1.73;;;20.60;99.90;;;;;;6064306;23;20423;-69
2022/10/28 14:39:03;;;;;;;1.63;1.63;;;20.60;99.90;;;;;;6063217;23;20415;-72
2022/10/28 14:41:45;;;;;;;2.57;2.03;;;20.50;99.90;;;;;;6063513;23;20453;-69
2022/10/28 14:44:31;;;;;;;1.20;1.20;;;20.50;99.90;;;;;;6064044;23;20413;-70
2022/10/28 14:47:15;;;;;;;3.70;2.00;;;20.50;99.90;;;;;;6064604;23;20422;-71
2022/10/28 14:49:56;;;;;;;1.97;1.87;;;20.40;99.90;;;;;;6064493;23;20410;-71
2022/10/28 14:52:25;;;;;;;3.07;1.70;;;20.40;99.90;;;;;;6064675;23;20458;-70
2022/10/28 14:54:55;;;;;;;2.33;1.57;;;20.30;99.90;;;;;;6062920;23;20434;-71
2022/10/28 14:57:28;;;;;;;3.07;2.07;;;20.30;99.90;;;;;;6061797;23;20939;-69
2022/10/28 14:59:56;;;;;;;3.27;2.07;;;20.20;99.90;;;;;;6064611;23;20411;-70
2022/10/28 15:02:25;;;;;;;1.23;1.23;;;20.20;99.90;;;;;;6062467;23;20453;-71
2022/10/28 15:05:01;;;;;;;2.20;2.03;;;20.10;99.90;;;;;;6064793;23;20434;-72
2022/10/28 15:07:27;;;;;;;8.37;2.10;;;20.00;99.90;;;;;;6073489;23;20402;-71
2022/10/28 15:09:55;;;;;;;1.87;1.77;;;20.00;99.90;;;;;;6073881;23;20718;-70
2022/10/28 15:12:25;;;;;;;8.03;2.20;;;19.90;99.90;;;;;;6062380;23;20455;-69
2022/10/28 15:14:54;;;;;;;2.67;1.50;;;19.90;99.90;;;;;;6062627;23;20421;-70
2022/10/28 15:17:24;;;;;;;1.70;1.70;;;19.90;99.90;;;;;;6073461;23;20436;-71
2022/10/28 15:19:53;;;;;;;1.40;1.40;;;19.90;99.90;;;;;;6064650;23;20418;-71
2022/10/28 15:22:22;;;;;;;1.57;1.57;;;19.80;99.90;;;;;;6063937;23;20568;-71
2022/10/28 15:24:57;;;;;;;10.13;1.83;;;19.80;99.90;;;;;;6063508;23;20476;-71
2022/10/28 15:27:25;;;;;;;2.50;2.07;;;19.80;99.90;;;;;;6062040;23;20444;-70
2022/10/28 15:29:52;;;;;;;1.43;1.33;;;19.70;99.90;;;;;;6063359;23;20429;-73
2022/10/28 15:32:29;;;;;;;2.57;2.07;;;19.70;99.90;;;;;;6064244;23;20521;-71
2022/10/28 15:34:57;;;;;;;2.63;2.27;;;19.60;99.90;;;;;;6064096;23;20419;-70
2022/10/28 15:37:26;;;;;;;1.80;1.70;;;19.60;99.90;;;;;;6064405;23;20942;-70
2022/10/28 15:40:10;;;;;;;1.30;1.20;;;19.50;99.90;;;;;;6064652;23;20729;-71
2022/10/28 15:42:40;;;;;;;1.63;1.53;;;19.50;99.90;;;;;;6061949;23;20461;-68
2022/10/28 15:45:16;;;;;;;2.50;2.27;;;19.40;99.90;;;;;;6064237;23;20518;-70
2022/10/28 15:47:46;;;;;;;2.30;1.77;;;19.40;99.90;;;;;;6064593;23;20417;-70
2022/10/28 15:50:27;;;;;;;1.50;1.43;;;19.40;99.90;;;;;;6065330;23;20433;-71
2022/10/28 15:52:55;;;;;;;4.83;2.10;;;19.40;99.90;;;;;;6063607;23;20467;-69
2022/10/28 15:55:31;;;;;;;1.97;1.87;;;19.30;99.90;;;;;;6064002;23;20432;-71
2022/10/28 15:57:59;;;;;;;1.40;1.40;;;19.30;99.90;;;;;;6063875;23;20435;-69
2022/10/28 16:00:28;;;;;;;2.40;2.10;;;19.20;99.90;;;;;;6064101;23;20440;-71
2022/10/28 16:02:58;;;;;;;2.70;2.60;;;19.20;99.90;;;;;;6062433;23;20935;-71
2022/10/28 16:05:45;;;;;;;1.90;1.90;;;19.20;99.90;;;;;;6064122;23;20432;-71
2022/10/28 16:08:19;;;;;;;1.77;1.77;;;19.10;99.90;;;;;;6063348;23;20417;-71
2022/10/28 16:10:48;;;;;;;2.00;1.90;;;19.10;99.90;;;;;;6063523;23;20496;-70
2022/10/28 16:13:20;;;;;;;1.33;1.13;;;19.10;99.90;;;;;;6062121;23;20751;-72
2022/10/28 16:15:53;;;;;;;1.87;1.77;;;19.00;99.90;;;;;;6063000;23;20421;-70
2022/10/28 16:18:22;;;;;;;2.97;2.77;;;18.90;99.90;;;;;;6063219;23;20416;-72
2022/10/28 16:20:49;;;;;;;2.80;2.60;;;18.90;99.90;;;;;;6063799;23;20433;-71
2022/10/28 16:23:17;;;;;;;3.00;2.90;;;18.90;99.90;;;;;;6063647;23;20459;-71
2022/10/28 16:25:44;;;;;;;2.13;2.03;;;18.80;99.90;;;;;;6064203;23;20505;-70
2022/10/28 16:28:19;;;;;;;2.27;2.13;;;18.70;99.90;;;;;;6064300;23;20427;-71
2022/10/28 16:30:46;;;;;;;3.57;1.57;;;18.70;99.90;;;;;;6063194;23;20416;-71
2022/10/28 16:33:12;;;;;;;1.90;1.87;;;18.70;99.90;;;;;;6062866;23;20927;-71
2022/10/28 16:35:40;;;;;;;4.20;2.83;;;18.70;99.90;;;;;;6064122;23;20420;-70
2022/10/28 16:38:11;;;;;;;7.83;2.60;;;18.70;99.90;;;;;;6064456;23;20901;-71
2022/10/28 16:40:38;;;;;;;4.13;2.37;;;18.60;99.90;;;;;;6063775;23;20738;-70
2022/10/28 16:43:05;;;;;;;3.90;2.70;;;18.60;99.90;;;;;;6063685;23;20453;-70
2022/10/28 16:45:31;;;;;;;5.23;2.60;;;18.50;99.90;;;;;;6063628;23;20465;-70
2022/10/28 16:47:58;;;;;;;4.10;1.90;;;18.50;99.90;;;;;;6064026;23;20534;-71
2022/10/28 16:50:25;;;;;;;2.33;2.17;;;18.50;99.90;;;;;;6064188;23;20432;-70
2022/10/28 16:52:55;;;;;;;2.50;1.60;;;18.50;99.90;;;;;;6063441;23;21363;-71
2022/10/28 16:55:21;;;;;;;1.87;1.77;;;18.50;99.90;;;;;;6062859;23;20523;-70
2022/10/28 16:57:48;;;;;;;2.77;2.57;;;18.50;99.90;;;;;;6063575;23;20931;-69
2022/10/28 17:00:15;;;;;;;2.30;2.10;;;18.50;99.90;;;;;;6064040;23;20531;-70
2022/10/28 17:02:42;;;;;;;1.50;1.50;;;18.50;99.90;;;;;;6063752;23;20453;-70
2022/10/28 17:05:17;;;;;;;2.00;1.90;;;18.50;99.90;;;;;;6063948;23;20439;-70
2022/10/28 17:07:44;;;;;;;8.53;2.47;;;18.50;99.90;;;;;;6062746;23;20419;-71
2022/10/28 17:10:14;;;;;;;3.07;2.50;;;18.50;99.90;;;;;;6076166;23;20407;-71